createdAt,value
2018-12-10T00:00:49.106Z,93.95
2018-12-10T00:03:35.824Z,93.57
2018-12-10T00:06:06.117Z,93.42
2018-12-10T00:08:35.964Z,93.64
2018-12-10T00:11:05.800Z,93.19
2018-12-10T00:13:36.020Z,92.31
2018-12-10T00:16:06.027Z,91.68
2018-12-10T00:18:35.989Z,90.98
2018-12-10T00:21:06.973Z,90.68
2018-12-10T00:23:36.817Z,91.21
2018-12-10T00:26:06.737Z,90.79
2018-12-10T00:28:36.511Z,91.31
2018-12-10T00:31:06.481Z,91.95
2018-12-10T00:33:36.297Z,92.27
2018-12-10T00:36:06.347Z,92.70
2018-12-10T00:38:36.295Z,92.99
2018-12-10T00:41:06.866Z,93.18
2018-12-10T00:43:36.723Z,93.57
2018-12-10T00:46:06.624Z,93.49
2018-12-10T00:48:36.438Z,92.76
2018-12-10T00:51:06.817Z,92.06
2018-12-10T00:53:37.401Z,91.92
2018-12-10T00:56:08.201Z,91.42
2018-12-10T00:58:38.015Z,90.54
2018-12-10T01:01:07.950Z,89.79
2018-12-10T01:03:37.993Z,88.63
2018-12-10T01:06:08.352Z,88.18
2018-12-10T01:08:39.452Z,87.87
2018-12-10T01:11:09.719Z,87.51
2018-12-10T01:13:39.638Z,88.12
2018-12-10T01:16:09.404Z,88.37
2018-12-10T01:18:39.238Z,89.07
2018-12-10T01:21:09.003Z,89.59
2018-12-10T01:23:38.812Z,89.53
2018-12-10T01:26:08.840Z,89.71
2018-12-10T01:28:38.627Z,89.82
2018-12-10T01:31:09.190Z,90.00
2018-12-10T01:33:38.927Z,90.41
2018-12-10T01:36:08.744Z,90.72
2018-12-10T01:38:38.528Z,91.21
2018-12-10T01:41:08.626Z,91.69
2018-12-10T01:43:38.450Z,92.21
2018-12-10T01:46:08.828Z,92.21
2018-12-10T01:48:38.760Z,92.26
2018-12-10T01:51:09.385Z,92.38
2018-12-10T01:53:39.132Z,92.73
2018-12-10T01:56:08.917Z,93.67
2018-12-10T01:58:38.676Z,93.27
2018-12-10T02:01:08.552Z,93.85
2018-12-10T02:03:38.393Z,94.16
2018-12-10T02:06:08.241Z,94.21
2018-12-10T02:08:38.061Z,94.34
2018-12-10T02:11:07.865Z,94.52
2018-12-10T02:13:37.631Z,95.12
2018-12-10T02:16:08.123Z,94.40
2018-12-10T02:18:37.934Z,94.23
2018-12-10T02:21:07.757Z,93.96
2018-12-10T02:23:38.721Z,93.67
2018-12-10T02:26:08.530Z,93.43
2018-12-10T02:28:43.507Z,93.04
2018-12-10T02:31:13.412Z,92.83
2018-12-10T02:33:43.230Z,92.81
2018-12-10T02:37:16.739Z,92.34
2018-12-10T02:39:46.539Z,92.33
2018-12-10T02:42:16.374Z,91.87
2018-12-10T02:44:46.594Z,91.92
2018-12-10T02:47:16.391Z,91.18
2018-12-10T02:49:46.131Z,90.73
2018-12-10T02:52:15.922Z,89.36
2018-12-10T02:54:45.709Z,89.79
2018-12-10T02:57:15.847Z,89.40
2018-12-10T02:59:45.718Z,88.93
2018-12-10T03:02:15.786Z,88.73
2018-12-10T03:04:45.595Z,88.46
2018-12-10T03:07:15.434Z,87.05
2018-12-10T03:09:45.688Z,86.76
2018-12-10T03:12:15.567Z,86.64
2018-12-10T03:14:45.370Z,85.94
2018-12-10T03:17:15.121Z,86.12
2018-12-10T03:19:44.881Z,86.22
2018-12-10T03:22:14.692Z,86.42
2018-12-10T03:24:44.494Z,85.92
2018-12-10T03:27:14.283Z,85.93
2018-12-10T03:29:44.099Z,85.65
2018-12-10T03:32:13.872Z,84.98
2018-12-10T03:34:43.984Z,84.58
2018-12-10T03:37:13.758Z,84.94
2018-12-10T03:39:43.847Z,84.94
2018-12-10T03:42:13.629Z,84.74
2018-12-10T03:44:43.482Z,85.04
2018-12-10T03:47:13.365Z,84.51
2018-12-10T03:49:43.127Z,83.77
2018-12-10T03:52:12.932Z,84.07
2018-12-10T03:54:43.155Z,83.85
2018-12-10T03:57:12.954Z,83.51
2018-12-10T03:59:42.902Z,83.00
2018-12-10T04:02:12.689Z,82.62
2018-12-10T04:04:42.582Z,82.68
2018-12-10T04:07:12.813Z,82.60
2018-12-10T04:09:42.640Z,82.51
2018-12-10T04:12:12.877Z,82.31
2018-12-10T04:14:43.574Z,82.50
2018-12-10T04:17:13.394Z,82.32
2018-12-10T04:19:43.186Z,82.27
2018-12-10T04:22:12.975Z,82.31
2018-12-10T04:24:42.863Z,82.42
2018-12-10T04:27:12.660Z,82.01
2018-12-10T04:29:42.466Z,82.45
2018-12-10T04:32:12.248Z,82.23
2018-12-10T04:34:42.046Z,82.35
2018-12-10T04:37:11.852Z,82.18
2018-12-10T04:39:41.622Z,81.51
2018-12-10T04:42:11.416Z,81.60
2018-12-10T04:44:41.324Z,81.85
2018-12-10T04:47:11.112Z,81.72
2018-12-10T04:49:40.876Z,81.52
2018-12-10T04:52:10.755Z,81.71
2018-12-10T04:54:40.734Z,81.95
2018-12-10T04:57:10.970Z,82.28
2018-12-10T04:59:40.742Z,82.81
2018-12-10T05:02:10.962Z,83.10
2018-12-10T05:04:40.776Z,83.31
2018-12-10T05:07:10.627Z,83.37
2018-12-10T05:13:16.344Z,83.60
2018-12-10T05:15:46.129Z,83.96
2018-12-10T05:18:15.933Z,83.60
2018-12-10T05:20:45.758Z,83.65
2018-12-10T05:23:15.569Z,84.10
2018-12-10T05:25:45.574Z,84.00
2018-12-10T05:28:15.361Z,84.06
2018-12-10T05:30:45.139Z,84.69
2018-12-10T05:33:14.895Z,84.59
2018-12-10T05:35:44.697Z,85.03
2018-12-10T05:38:14.585Z,85.25
2018-12-10T05:40:44.877Z,85.77
2018-12-10T05:43:14.654Z,85.42
2018-12-10T05:45:44.427Z,85.74
2018-12-10T05:48:14.205Z,86.01
2018-12-10T05:50:44.005Z,86.07
2018-12-10T05:53:13.822Z,86.59
2018-12-10T05:55:43.609Z,86.62
2018-12-10T05:58:13.434Z,86.53
2018-12-10T06:04:18.893Z,87.68
2018-12-10T06:06:48.639Z,87.29
2018-12-10T06:09:18.406Z,87.70
2018-12-10T06:11:48.575Z,88.31
2018-12-10T06:14:18.424Z,88.68
2018-12-10T06:16:48.316Z,89.23
2018-12-10T06:19:18.091Z,89.06
2018-12-10T06:21:47.873Z,89.20
2018-12-10T06:24:17.678Z,89.28
2018-12-10T06:26:47.418Z,89.72
2018-12-10T06:29:17.288Z,90.13
2018-12-10T06:31:47.097Z,90.36
2018-12-10T06:34:16.961Z,90.77
2018-12-10T06:36:46.790Z,91.84
2018-12-10T06:39:16.635Z,91.84
2018-12-10T06:41:46.485Z,92.40
2018-12-10T06:44:16.670Z,92.51
2018-12-10T06:46:46.471Z,93.27
2018-12-10T06:49:16.322Z,93.50
2018-12-10T06:51:46.239Z,93.97
2018-12-10T06:54:16.068Z,94.94
2018-12-10T06:56:45.921Z,95.39
2018-12-10T06:59:16.091Z,95.43
2018-12-10T07:01:45.941Z,95.47
2018-12-10T07:04:16.181Z,95.75
2018-12-10T07:06:46.017Z,95.59
2018-12-10T07:09:15.787Z,95.21
2018-12-10T07:11:45.636Z,95.45
2018-12-10T07:14:15.533Z,96.07
2018-12-10T07:16:46.905Z,96.00
2018-12-10T07:19:16.899Z,96.14
2018-12-10T07:21:47.002Z,96.61
2018-12-10T07:24:16.773Z,97.14
2018-12-10T07:26:46.559Z,96.98
2018-12-10T07:29:16.494Z,97.33
2018-12-10T07:31:46.299Z,97.44
2018-12-10T07:34:16.131Z,96.85
2018-12-10T07:36:46.647Z,97.09
2018-12-10T07:39:16.434Z,96.82
2018-12-10T07:41:46.245Z,96.70
2018-12-10T07:44:16.051Z,96.62
2018-12-10T07:46:46.277Z,96.63
2018-12-10T07:49:16.049Z,96.05
2018-12-10T07:51:46.285Z,95.87
2018-12-10T07:54:16.065Z,95.59
2018-12-10T07:56:45.841Z,95.83
2018-12-10T07:59:22.805Z,95.67
2018-12-10T08:01:52.839Z,95.79
2018-12-10T08:04:22.631Z,95.22
2018-12-10T08:06:52.418Z,95.29
2018-12-10T08:09:22.215Z,94.67
2018-12-10T08:11:52.168Z,94.82
2018-12-10T08:14:22.074Z,94.74
2018-12-10T08:16:52.247Z,94.59
2018-12-10T08:19:22.000Z,94.12
2018-12-10T08:21:52.087Z,93.09
2018-12-10T08:24:21.822Z,92.65
2018-12-10T08:26:52.209Z,92.39
2018-12-10T08:29:21.966Z,92.70
2018-12-10T08:31:51.725Z,93.27
2018-12-10T08:34:21.744Z,92.86
2018-12-10T08:36:51.487Z,92.93
2018-12-10T08:39:21.371Z,92.68
2018-12-10T08:41:51.767Z,92.19
2018-12-10T08:44:22.154Z,92.04
2018-12-10T08:46:51.953Z,91.17
2018-12-10T08:49:22.129Z,90.92
2018-12-10T08:51:52.032Z,91.20
2018-12-10T08:54:22.647Z,90.78
2018-12-10T08:56:52.907Z,90.55
2018-12-10T08:59:23.339Z,90.46
2018-12-10T09:01:53.203Z,89.34
2018-12-10T09:04:22.955Z,89.09
2018-12-10T09:06:52.883Z,89.85
2018-12-10T09:09:23.122Z,88.69
2018-12-10T09:11:53.089Z,87.59
2018-12-10T09:14:22.909Z,87.38
2018-12-10T09:16:53.723Z,87.14
2018-12-10T09:19:23.487Z,87.17
2018-12-10T09:21:53.677Z,87.35
2018-12-10T09:24:23.419Z,85.22
2018-12-10T09:26:53.447Z,85.36
2018-12-10T09:29:23.207Z,84.75
2018-12-10T09:31:53.557Z,84.56
2018-12-10T09:34:23.565Z,84.43
2018-12-10T09:36:53.341Z,83.62
2018-12-10T09:39:23.295Z,83.91
2018-12-10T09:41:53.190Z,81.60
2018-12-10T09:44:23.267Z,82.48
2018-12-10T09:46:58.763Z,81.71
2018-12-10T09:49:25.184Z,81.28
2018-12-10T09:51:54.996Z,80.88
2018-12-10T09:54:24.733Z,80.68
2018-12-10T09:56:54.519Z,81.25
2018-12-10T09:59:24.263Z,81.44
2018-12-10T10:01:54.009Z,81.32
2018-12-10T10:04:23.777Z,81.10
2018-12-10T10:06:53.598Z,81.10
2018-12-10T10:09:23.702Z,79.59
2018-12-10T10:11:53.446Z,79.66
2018-12-10T10:14:23.289Z,79.88
2018-12-10T10:16:53.051Z,79.82
2018-12-10T10:19:22.782Z,78.79
2018-12-10T10:21:52.532Z,78.53
2018-12-10T10:24:22.310Z,78.96
2018-12-10T10:26:52.082Z,79.46
2018-12-10T10:29:21.801Z,78.80
2018-12-10T10:31:51.622Z,78.75
2018-12-10T10:34:21.681Z,79.26
2018-12-10T10:36:52.146Z,77.59
2018-12-10T10:39:21.869Z,78.89
2018-12-10T10:41:51.651Z,79.08
2018-12-10T10:44:21.454Z,78.76
2018-12-10T10:46:51.199Z,77.84
2018-12-10T10:49:20.959Z,78.32
2018-12-10T10:51:51.043Z,78.32
2018-12-10T10:54:20.870Z,77.91
2018-12-10T10:56:50.630Z,78.27
2018-12-10T10:59:20.372Z,78.33
2018-12-10T11:01:58.096Z,78.79
2018-12-10T11:04:27.847Z,78.35
2018-12-10T11:06:58.118Z,79.09
2018-12-10T11:09:27.891Z,78.51
2018-12-10T11:11:57.752Z,79.64
2018-12-10T11:14:28.044Z,79.52
2018-12-10T11:16:57.872Z,79.02
2018-12-10T11:19:27.642Z,78.11
2018-12-10T11:21:57.760Z,78.68
2018-12-10T11:24:27.514Z,78.18
2018-12-10T11:26:57.298Z,78.25
2018-12-10T11:29:27.515Z,77.76
2018-12-10T11:31:57.328Z,77.81
2018-12-10T11:34:27.582Z,76.67
2018-12-10T11:36:58.174Z,77.68
2018-12-10T11:39:27.937Z,76.37
2018-12-10T11:41:57.754Z,76.27
2018-12-10T11:44:27.547Z,76.12
2018-12-10T11:46:57.628Z,75.69
2018-12-10T11:49:27.744Z,75.80
2018-12-10T11:51:57.822Z,76.51
2018-12-10T11:54:27.676Z,76.13
2018-12-10T11:56:58.118Z,76.70
2018-12-10T11:59:27.922Z,76.99
2018-12-10T12:01:57.657Z,76.15
2018-12-10T12:04:28.447Z,75.71
2018-12-10T12:06:58.221Z,76.67
2018-12-10T12:09:28.005Z,76.26
2018-12-10T12:11:58.161Z,75.89
2018-12-10T12:14:28.409Z,76.60
2018-12-10T12:16:59.137Z,75.70
2018-12-10T12:19:29.269Z,76.40
2018-12-10T12:21:59.082Z,75.93
2018-12-10T12:24:28.800Z,74.59
2018-12-10T12:26:58.598Z,74.52
2018-12-10T12:29:29.141Z,74.54
2018-12-10T12:31:58.891Z,74.79
2018-12-10T12:34:28.672Z,74.95
2018-12-10T12:36:58.437Z,74.65
2018-12-10T12:39:28.336Z,75.07
2018-12-10T12:41:58.072Z,75.58
2018-12-10T12:44:27.850Z,75.72
2018-12-10T12:46:57.580Z,75.38
2018-12-10T12:49:27.342Z,75.72
2018-12-10T12:51:58.655Z,75.87
2018-12-10T12:54:28.441Z,74.39
2018-12-10T12:56:58.187Z,74.87
2018-12-10T12:59:27.930Z,76.10
2018-12-10T13:01:58.140Z,76.53
2018-12-10T13:04:33.317Z,75.27
2018-12-10T13:07:04.134Z,75.29
2018-12-10T13:09:33.870Z,75.70
2018-12-10T13:12:03.653Z,76.10
2018-12-10T13:14:34.233Z,75.80
2018-12-10T13:17:04.052Z,76.05
2018-12-10T13:19:33.876Z,77.21
2018-12-10T13:22:03.685Z,77.32
2018-12-10T13:24:35.805Z,78.09
2018-12-10T13:27:06.520Z,78.83
2018-12-10T13:29:36.367Z,78.90
2018-12-10T13:32:06.832Z,79.26
2018-12-10T13:34:36.601Z,79.41
2018-12-10T13:37:06.440Z,80.15
2018-12-10T13:39:36.390Z,80.38
2018-12-10T13:42:06.732Z,79.84
2018-12-10T13:44:36.491Z,79.94
2018-12-10T13:47:06.287Z,78.52
2018-12-10T13:49:36.082Z,78.42
2018-12-10T13:52:09.131Z,77.70
2018-12-10T13:54:38.141Z,78.13
2018-12-10T13:57:08.705Z,79.25
2018-12-10T13:59:38.463Z,78.89
2018-12-10T14:02:08.365Z,78.68
2018-12-10T14:04:43.645Z,78.54
2018-12-10T14:07:13.529Z,79.19
2018-12-10T14:09:43.478Z,80.04
2018-12-10T14:12:13.249Z,80.20
2018-12-10T14:14:43.171Z,80.91
2018-12-10T14:17:13.360Z,80.93
2018-12-10T14:19:43.129Z,81.28
2018-12-10T14:22:13.293Z,81.62
2018-12-10T14:24:43.531Z,82.53
2018-12-10T14:27:14.121Z,82.60
2018-12-10T14:29:43.897Z,82.58
2018-12-10T14:32:13.682Z,82.55
2018-12-10T14:34:43.855Z,82.32
2018-12-10T14:37:13.649Z,83.10
2018-12-10T14:39:43.385Z,83.06
2018-12-10T14:42:25.978Z,82.64
2018-12-10T14:44:55.771Z,83.65
2018-12-10T14:47:25.585Z,83.39
2018-12-10T14:49:55.358Z,83.84
2018-12-10T14:52:25.116Z,83.97
2018-12-10T14:54:54.977Z,84.16
2018-12-10T14:57:24.741Z,84.86
2018-12-10T14:59:54.630Z,85.03
2018-12-10T15:02:24.453Z,85.71
2018-12-10T15:04:54.222Z,86.27
2018-12-10T15:07:24.004Z,86.40
2018-12-10T15:09:53.766Z,86.86
2018-12-10T15:12:23.559Z,87.15
2018-12-10T15:14:53.393Z,86.91
2018-12-10T15:17:23.527Z,87.45
2018-12-10T15:21:22.804Z,87.67
2018-12-10T15:23:52.555Z,87.76
2018-12-10T15:26:22.313Z,88.11
2018-12-10T15:28:53.975Z,87.79
2018-12-10T15:31:23.800Z,87.59
2018-12-10T15:33:53.811Z,87.54
2018-12-10T15:36:23.622Z,88.38
2018-12-10T15:38:53.422Z,88.20
2018-12-10T15:41:24.620Z,88.46
2018-12-10T15:43:54.428Z,88.69
2018-12-10T15:46:24.929Z,88.86
2018-12-10T15:48:54.743Z,88.90
2018-12-10T15:51:24.836Z,89.59
2018-12-10T15:53:54.624Z,90.38
2018-12-10T15:56:25.217Z,91.40
2018-12-10T15:58:55.003Z,91.52
2018-12-10T16:01:28.966Z,91.46
2018-12-10T16:03:58.788Z,92.94
2018-12-10T16:06:28.869Z,94.12
2018-12-10T16:08:59.383Z,93.76
2018-12-10T16:11:29.487Z,93.60
2018-12-10T16:13:59.241Z,93.92
2018-12-10T16:16:28.995Z,94.25
2018-12-10T16:18:58.747Z,94.77
2018-12-10T16:21:28.731Z,95.41
2018-12-10T16:23:58.474Z,95.95
2018-12-10T16:26:28.239Z,95.69
2018-12-10T16:28:58.721Z,95.38
2018-12-10T16:31:28.461Z,95.40
2018-12-10T16:33:58.334Z,95.95
2018-12-10T16:36:28.458Z,95.84
2018-12-10T16:38:58.270Z,95.72
2018-12-10T16:41:28.151Z,95.76
2018-12-10T16:43:57.956Z,95.17
2018-12-10T16:46:27.999Z,94.76
2018-12-10T16:48:57.752Z,94.65
2018-12-10T16:51:27.523Z,94.57
2018-12-10T16:53:57.600Z,94.64
2018-12-10T16:56:27.475Z,94.71
2018-12-10T16:58:57.250Z,94.96
2018-12-10T17:01:27.022Z,94.95
2018-12-10T17:03:56.904Z,95.15
2018-12-10T17:06:26.732Z,95.03
2018-12-10T17:08:57.202Z,95.21
2018-12-10T17:11:27.636Z,94.82
2018-12-10T17:13:57.980Z,95.34
2018-12-10T17:16:27.972Z,94.57
2018-12-10T17:18:57.756Z,94.79
2018-12-10T17:21:27.554Z,95.11
2018-12-10T17:23:57.307Z,94.96
2018-12-10T17:26:28.304Z,95.19
2018-12-10T17:28:58.247Z,95.37
2018-12-10T17:31:28.037Z,94.90
2018-12-10T17:33:57.733Z,94.14
2018-12-10T17:36:27.542Z,94.28
2018-12-10T17:38:57.335Z,94.59
2018-12-10T17:41:27.330Z,94.56
2018-12-10T17:43:57.365Z,94.70
2018-12-10T17:46:27.176Z,94.64
2018-12-10T17:48:56.949Z,94.55
2018-12-10T17:51:26.724Z,94.27
2018-12-10T17:53:57.602Z,94.38
2018-12-10T17:56:27.947Z,94.40
2018-12-10T17:58:58.180Z,94.45
2018-12-10T18:01:27.957Z,94.72
2018-12-10T18:03:58.455Z,94.88
2018-12-10T18:06:28.856Z,95.10
2018-12-10T18:08:58.612Z,95.56
2018-12-10T18:11:28.413Z,95.35
2018-12-10T18:13:58.280Z,95.45
2018-12-10T18:16:28.159Z,94.65
2018-12-10T18:18:58.000Z,94.91
2018-12-10T18:21:28.682Z,94.46
2018-12-10T18:23:58.924Z,94.11
2018-12-10T18:26:28.785Z,94.72
2018-12-10T18:28:58.737Z,94.81
2018-12-10T18:31:28.836Z,94.80
2018-12-10T18:33:59.258Z,95.00
2018-12-10T18:36:29.224Z,94.88
2018-12-10T18:38:59.630Z,94.55
2018-12-10T18:41:29.520Z,94.66
2018-12-10T18:43:59.788Z,94.36
2018-12-10T18:46:31.612Z,94.24
2018-12-10T18:49:01.648Z,93.69
2018-12-10T18:51:31.839Z,93.47
2018-12-10T18:54:01.784Z,93.06
2018-12-10T18:56:33.227Z,92.31
2018-12-10T18:59:03.022Z,92.28
2018-12-10T19:01:33.055Z,92.46
2018-12-10T19:04:04.987Z,91.93
2018-12-10T19:06:34.856Z,92.19
2018-12-10T19:09:09.156Z,91.85
2018-12-10T19:11:40.169Z,92.06
2018-12-10T19:14:10.784Z,92.00
2018-12-10T19:16:40.731Z,92.06
2018-12-10T19:19:10.927Z,91.07
2018-12-10T19:25:15.899Z,90.01
2018-12-10T19:27:46.065Z,89.59
2018-12-10T19:30:16.082Z,89.34
2018-12-10T19:32:46.043Z,90.12
2018-12-10T19:35:15.993Z,90.51
2018-12-10T19:37:46.021Z,90.04
2018-12-10T19:40:15.990Z,90.44
2018-12-10T19:42:45.925Z,89.96
2018-12-10T19:45:16.401Z,89.89
2018-12-10T19:47:46.371Z,89.31
2018-12-10T19:50:17.000Z,89.47
2018-12-10T19:52:48.126Z,89.87
2018-12-10T19:55:18.112Z,89.21
2018-12-10T19:57:50.805Z,88.78
2018-12-10T20:07:32.459Z,88.57
2018-12-10T20:10:02.483Z,89.11
2018-12-10T20:12:33.843Z,89.25
2018-12-10T20:15:03.784Z,89.24
2018-12-10T20:17:33.639Z,88.73
2018-12-10T20:23:38.822Z,89.04
2018-12-10T20:26:08.703Z,89.28
2018-12-10T20:28:38.781Z,89.41
2018-12-10T20:31:08.894Z,89.95
2018-12-10T20:33:38.777Z,89.95
2018-12-10T20:57:43.830Z,90.91
2018-12-10T21:00:14.514Z,91.07
2018-12-10T21:02:44.306Z,91.14
2018-12-10T21:05:14.590Z,91.19
2018-12-10T21:18:32.469Z,91.77
2018-12-10T21:21:02.292Z,91.33
2018-12-10T21:23:33.038Z,91.51
2018-12-10T21:26:02.897Z,91.43
2018-12-10T21:28:32.812Z,90.93
2018-12-10T21:31:03.530Z,91.19
2018-12-10T21:33:33.402Z,90.94
2018-12-10T21:36:03.226Z,90.92
2018-12-10T21:38:33.076Z,91.07
2018-12-10T21:41:03.017Z,90.52
2018-12-10T21:51:19.807Z,89.68
2018-12-10T21:53:49.846Z,89.77
2018-12-10T21:56:19.800Z,90.46
2018-12-10T21:58:49.748Z,90.49
2018-12-10T22:01:22.550Z,90.68
2018-12-10T22:03:52.699Z,90.60
2018-12-10T22:06:23.150Z,90.24
2018-12-10T22:08:52.970Z,90.58
2018-12-10T22:11:22.861Z,90.51
2018-12-10T22:13:52.678Z,90.14
2018-12-10T22:16:22.994Z,89.47
2018-12-10T22:18:52.920Z,89.92
2018-12-10T22:21:22.791Z,90.05
2018-12-10T22:23:52.646Z,90.14
2018-12-10T22:26:27.245Z,90.13
2018-12-10T22:28:57.775Z,90.54
2018-12-10T22:35:24.594Z,89.44
2018-12-10T22:37:54.814Z,89.06
2018-12-10T22:40:24.912Z,88.63
2018-12-10T22:46:34.317Z,88.68
2018-12-10T22:49:07.346Z,88.97
2018-12-10T22:51:38.172Z,89.39
2018-12-10T22:54:08.094Z,89.49
2018-12-10T22:57:02.290Z,90.24
2018-12-10T22:59:45.455Z,90.42
2018-12-10T23:02:38.380Z,90.49
2018-12-10T23:09:07.196Z,91.13
2018-12-10T23:15:48.991Z,91.15
2018-12-10T23:18:18.737Z,90.98
2018-12-10T23:20:49.642Z,91.13
2018-12-10T23:23:19.514Z,91.10
2018-12-10T23:25:49.320Z,91.39
2018-12-10T23:28:19.287Z,91.19
2018-12-10T23:30:51.094Z,91.00
2018-12-10T23:33:20.914Z,91.15
2018-12-10T23:35:50.754Z,90.97
2018-12-10T23:38:20.730Z,91.06
2018-12-10T23:40:50.551Z,91.20
2018-12-10T23:43:25.896Z,91.89
2018-12-10T23:45:55.959Z,91.62
2018-12-10T23:48:26.034Z,92.61
2018-12-10T23:50:56.288Z,93.18
2018-12-10T23:53:26.230Z,93.06
2018-12-10T23:55:56.206Z,92.90
2018-12-10T23:58:26.298Z,93.13
